createdAt,value
2018-11-07T00:00:53.186Z,116.03
2018-11-07T00:01:57.784Z,116.10
2018-11-07T00:03:02.381Z,124.15
2018-11-07T00:04:07.101Z,130.85
2018-11-07T00:05:11.852Z,125.50
2018-11-07T00:06:16.441Z,125.58
2018-11-07T00:07:21.012Z,123.25
2018-11-07T00:08:40.429Z,119.90
2018-11-07T00:09:44.986Z,128.68
2018-11-07T00:10:49.536Z,127.20
2018-11-07T00:11:54.136Z,129.68
2018-11-07T00:12:58.707Z,119.70
2018-11-07T00:14:03.323Z,129.97
2018-11-07T00:15:09.864Z,116.50
2018-11-07T00:16:14.406Z,121.17
2018-11-07T00:17:18.951Z,135.97
2018-11-07T00:18:23.499Z,129.82
2018-11-07T00:19:28.080Z,130.12
2018-11-07T00:20:32.648Z,122.78
2018-11-07T00:21:37.166Z,119.90
2018-11-07T00:22:41.744Z,130.25
2018-11-07T00:23:46.301Z,123.60
2018-11-07T00:24:50.857Z,126.65
2018-11-07T00:25:55.395Z,120.45
2018-11-07T00:26:59.911Z,123.28
2018-11-07T00:28:04.458Z,117.75
2018-11-07T00:29:09.354Z,116.90
2018-11-07T00:30:13.954Z,126.42
2018-11-07T00:31:18.434Z,117.53
2018-11-07T00:32:22.948Z,127.70
2018-11-07T00:33:27.404Z,124.38
2018-11-07T00:34:31.930Z,122.82
2018-11-07T00:35:36.440Z,126.78
2018-11-07T00:36:40.997Z,121.70
2018-11-07T00:37:45.521Z,128.75
2018-11-07T00:38:50.043Z,121.30
2018-11-07T00:39:54.553Z,133.35
2018-11-07T00:40:59.149Z,129.05
2018-11-07T00:42:03.708Z,124.70
2018-11-07T00:43:08.263Z,133.03
2018-11-07T00:44:12.795Z,133.22
2018-11-07T00:45:18.129Z,134.05
2018-11-07T00:46:22.749Z,126.92
2018-11-07T00:47:27.729Z,128.18
2018-11-07T00:48:32.214Z,127.50
2018-11-07T00:49:36.684Z,139.60
2018-11-07T00:50:41.149Z,133.25
2018-11-07T00:51:45.667Z,134.00
2018-11-07T00:52:50.211Z,141.32
2018-11-07T00:53:54.672Z,138.45
2018-11-07T00:54:59.226Z,145.30
2018-11-07T00:56:03.702Z,140.57
2018-11-07T00:57:08.970Z,137.28
2018-11-07T00:58:13.612Z,142.00
2018-11-07T00:59:18.089Z,135.52
2018-11-07T01:00:22.673Z,147.20
2018-11-07T01:01:27.209Z,151.97
2018-11-07T01:02:31.741Z,146.15
2018-11-07T01:03:36.242Z,145.40
2018-11-07T01:04:40.691Z,136.62
2018-11-07T01:05:45.256Z,148.87
2018-11-07T01:06:49.811Z,144.07
2018-11-07T01:07:54.338Z,143.72
2018-11-07T01:08:58.880Z,151.27
2018-11-07T01:10:03.958Z,142.77
2018-11-07T01:11:08.505Z,139.52
2018-11-07T01:12:13.252Z,135.00
2018-11-07T01:13:17.787Z,133.40
2018-11-07T01:14:22.346Z,135.52
2018-11-07T01:15:26.860Z,134.45
2018-11-07T01:16:31.405Z,129.90
2018-11-07T01:17:35.894Z,135.25
2018-11-07T01:18:40.409Z,125.20
2018-11-07T01:19:44.952Z,135.25
2018-11-07T01:20:49.435Z,141.50
2018-11-07T01:21:53.893Z,134.18
2018-11-07T01:22:58.438Z,130.45
2018-11-07T01:24:03.007Z,141.12
2018-11-07T01:25:08.357Z,128.75
2018-11-07T01:26:12.901Z,120.02
2018-11-07T01:27:17.342Z,126.80
2018-11-07T01:28:21.953Z,128.93
2018-11-07T01:29:26.355Z,127.42
2018-11-07T01:30:30.890Z,126.40
2018-11-07T01:31:35.437Z,131.47
2018-11-07T01:32:40.132Z,139.30
2018-11-07T01:33:44.653Z,120.97
2018-11-07T01:34:49.140Z,122.62
2018-11-07T01:35:53.635Z,127.40
2018-11-07T01:36:58.103Z,132.60
2018-11-07T01:38:02.588Z,128.85
2018-11-07T01:39:09.125Z,127.78
2018-11-07T01:40:14.596Z,126.18
2018-11-07T01:41:19.359Z,116.05
2018-11-07T01:42:23.923Z,127.90
2018-11-07T01:43:28.467Z,115.77
2018-11-07T01:44:33.007Z,120.95
2018-11-07T01:45:37.590Z,113.70
2018-11-07T01:46:42.141Z,125.33
2018-11-07T01:47:46.607Z,121.60
2018-11-07T01:48:51.157Z,122.58
2018-11-07T01:49:55.705Z,130.20
2018-11-07T01:51:00.196Z,125.25
2018-11-07T01:52:04.838Z,123.28
2018-11-07T01:53:09.366Z,122.72
2018-11-07T01:54:14.506Z,129.60
2018-11-07T01:55:19.051Z,119.60
2018-11-07T01:56:23.575Z,125.78
2018-11-07T01:57:28.111Z,120.08
2018-11-07T01:58:32.685Z,110.32
2018-11-07T01:59:37.258Z,120.15
2018-11-07T02:00:41.788Z,121.25
2018-11-07T02:01:46.340Z,117.53
2018-11-07T02:02:50.855Z,108.87
2018-11-07T02:03:55.385Z,118.08
2018-11-07T02:04:59.845Z,114.50
2018-11-07T02:06:04.562Z,112.10
2018-11-07T02:07:09.357Z,106.43
2018-11-07T02:08:13.878Z,107.80
2018-11-07T02:09:18.429Z,115.10
2018-11-07T02:10:22.985Z,110.32
2018-11-07T02:11:27.505Z,123.13
2018-11-07T02:12:32.038Z,114.10
2018-11-07T02:13:36.671Z,118.40
2018-11-07T02:14:41.220Z,114.40
2018-11-07T02:15:45.760Z,118.80
2018-11-07T02:16:50.285Z,108.72
2018-11-07T02:17:54.832Z,122.72
2018-11-07T02:18:59.347Z,115.25
2018-11-07T02:20:03.929Z,116.15
2018-11-07T02:21:08.464Z,116.70
2018-11-07T02:22:12.997Z,111.90
2018-11-07T02:23:17.564Z,115.67
2018-11-07T02:24:22.097Z,116.33
2018-11-07T02:25:26.604Z,113.25
2018-11-07T02:26:31.203Z,112.00
2018-11-07T02:27:35.680Z,112.03
2018-11-07T02:28:40.245Z,115.17
2018-11-07T02:29:44.784Z,104.30
2018-11-07T02:30:49.325Z,109.70
2018-11-07T02:31:53.874Z,113.00
2018-11-07T02:32:58.394Z,113.37
2018-11-07T02:34:02.937Z,113.10
2018-11-07T02:35:07.518Z,111.10
2018-11-07T02:36:12.054Z,113.22
2018-11-07T02:37:16.586Z,108.12
2018-11-07T02:38:21.087Z,112.83
2018-11-07T02:39:25.604Z,112.62
2018-11-07T02:40:30.120Z,106.03
2018-11-07T02:41:34.694Z,117.45
2018-11-07T02:42:39.561Z,103.15
2018-11-07T02:43:44.415Z,113.17
2018-11-07T02:44:48.949Z,100.82
2018-11-07T02:45:53.509Z,103.70
2018-11-07T02:46:58.500Z,106.75
2018-11-07T02:48:03.007Z,114.57
2018-11-07T02:49:07.541Z,108.65
2018-11-07T02:50:12.660Z,100.87
2018-11-07T02:51:17.197Z,119.33
2018-11-07T02:52:21.715Z,111.50
2018-11-07T02:53:26.703Z,109.35
2018-11-07T02:54:31.220Z,102.55
2018-11-07T02:55:35.738Z,107.17
2018-11-07T02:56:40.259Z,101.00
2018-11-07T02:57:44.789Z,110.32
2018-11-07T02:58:49.362Z,113.40
2018-11-07T02:59:53.900Z,100.97
2018-11-07T03:00:58.485Z,111.30
2018-11-07T03:02:03.120Z,107.17
2018-11-07T03:03:07.650Z,99.42
2018-11-07T03:04:12.305Z,106.45
2018-11-07T03:05:16.861Z,106.10
2018-11-07T03:06:21.411Z,109.25
2018-11-07T03:07:26.221Z,114.82
2018-11-07T03:08:32.346Z,106.15
2018-11-07T03:09:36.926Z,106.90
2018-11-07T03:10:41.527Z,114.40
2018-11-07T03:11:45.974Z,96.60
2018-11-07T03:12:50.529Z,98.58
2018-11-07T03:13:55.647Z,107.78
2018-11-07T03:15:00.171Z,102.97
2018-11-07T03:16:04.705Z,103.15
2018-11-07T03:17:09.596Z,113.65
2018-11-07T03:18:14.179Z,97.75
2018-11-07T03:19:18.692Z,111.25
2018-11-07T03:20:23.210Z,104.15
2018-11-07T03:21:27.745Z,107.30
2018-11-07T03:22:32.207Z,107.45
2018-11-07T03:23:36.736Z,104.47
2018-11-07T03:24:41.198Z,99.58
2018-11-07T03:25:45.737Z,107.72
2018-11-07T03:26:50.272Z,112.57
2018-11-07T03:27:54.813Z,101.42
2018-11-07T03:28:59.322Z,99.13
2018-11-07T03:30:04.152Z,107.45
2018-11-07T03:31:08.771Z,99.80
2018-11-07T03:32:13.309Z,100.67
2018-11-07T03:33:17.852Z,110.68
2018-11-07T03:34:22.393Z,102.90
2018-11-07T03:35:27.512Z,104.07
2018-11-07T03:36:32.065Z,110.05
2018-11-07T03:37:36.609Z,106.35
2018-11-07T03:38:41.172Z,109.05
2018-11-07T03:39:45.851Z,101.35
2018-11-07T03:40:50.386Z,113.03
2018-11-07T03:41:54.888Z,107.17
2018-11-07T03:42:59.430Z,102.22
2018-11-07T03:44:04.174Z,106.83
2018-11-07T03:45:09.022Z,108.20
2018-11-07T03:46:14.126Z,104.72
2018-11-07T03:47:18.688Z,103.62
2018-11-07T03:48:23.242Z,99.13
2018-11-07T03:49:27.701Z,113.17
2018-11-07T03:50:32.175Z,98.27
2018-11-07T03:51:36.746Z,97.35
2018-11-07T03:52:41.578Z,101.47
2018-11-07T03:53:46.109Z,105.52
2018-11-07T03:54:50.552Z,99.97
2018-11-07T03:55:55.134Z,101.58
2018-11-07T03:56:59.695Z,101.27
2018-11-07T03:58:04.161Z,104.27
2018-11-07T03:59:08.973Z,102.27
2018-11-07T04:00:13.496Z,106.00
2018-11-07T04:01:18.017Z,105.67
2018-11-07T04:02:22.548Z,112.62
2018-11-07T04:03:27.010Z,95.53
2018-11-07T04:04:31.558Z,96.78
2018-11-07T04:05:36.105Z,95.47
2018-11-07T04:06:40.631Z,96.42
2018-11-07T04:07:45.135Z,91.35
2018-11-07T04:08:49.694Z,97.00
2018-11-07T04:09:54.228Z,98.87
2018-11-07T04:10:59.271Z,91.00
2018-11-07T04:12:03.821Z,99.50
2018-11-07T04:13:08.354Z,96.50
2018-11-07T04:14:12.964Z,103.02
2018-11-07T04:15:17.525Z,104.85
2018-11-07T04:16:22.052Z,92.05
2018-11-07T04:17:26.920Z,99.85
2018-11-07T04:18:31.428Z,101.95
2018-11-07T04:19:35.988Z,99.87
2018-11-07T04:20:40.521Z,97.47
2018-11-07T04:21:45.064Z,96.70
2018-11-07T04:22:49.579Z,96.75
2018-11-07T04:24:04.222Z,92.12
2018-11-07T04:25:09.335Z,94.67
2018-11-07T04:26:13.841Z,100.58
2018-11-07T04:27:18.295Z,98.97
2018-11-07T04:28:23.119Z,94.67
2018-11-07T04:29:27.648Z,86.10
2018-11-07T04:30:32.173Z,94.05
2018-11-07T04:31:36.701Z,94.85
2018-11-07T04:32:41.738Z,104.20
2018-11-07T04:33:46.300Z,91.75
2018-11-07T04:34:50.864Z,92.37
2018-11-07T04:35:55.406Z,104.23
2018-11-07T04:36:59.929Z,92.53
2018-11-07T04:38:04.481Z,100.97
2018-11-07T04:39:10.177Z,97.90
2018-11-07T04:40:14.684Z,86.50
2018-11-07T04:41:19.189Z,86.67
2018-11-07T04:42:23.710Z,96.00
2018-11-07T04:43:28.220Z,98.03
2018-11-07T04:44:32.749Z,95.22
2018-11-07T04:45:37.278Z,93.95
2018-11-07T04:46:41.801Z,97.25
2018-11-07T04:47:46.378Z,103.00
2018-11-07T04:48:50.920Z,93.07
2018-11-07T04:49:55.455Z,91.02
2018-11-07T04:51:00.035Z,96.37
2018-11-07T04:52:04.604Z,91.78
2018-11-07T04:53:09.145Z,92.90
2018-11-07T04:54:13.698Z,87.67
2018-11-07T04:55:18.219Z,94.10
2018-11-07T04:56:22.699Z,91.40
2018-11-07T04:57:27.717Z,96.00
2018-11-07T04:58:32.258Z,101.15
2018-11-07T04:59:36.792Z,93.03
2018-11-07T05:00:41.344Z,95.92
2018-11-07T05:01:45.797Z,93.05
2018-11-07T05:02:50.258Z,89.67
2018-11-07T05:03:54.724Z,88.22
2018-11-07T05:04:59.233Z,90.47
2018-11-07T05:06:04.228Z,84.80
2018-11-07T05:07:08.815Z,88.60
2018-11-07T05:08:13.353Z,93.30
2018-11-07T05:09:17.872Z,86.57
2018-11-07T05:10:22.401Z,83.17
2018-11-07T05:11:26.929Z,82.97
2018-11-07T05:12:31.589Z,88.45
2018-11-07T05:13:36.166Z,82.17
2018-11-07T05:14:40.815Z,82.35
2018-11-07T05:15:45.355Z,93.62
2018-11-07T05:16:49.933Z,83.55
2018-11-07T05:17:54.811Z,96.97
2018-11-07T05:18:59.351Z,96.10
2018-11-07T05:20:04.238Z,91.65
2018-11-07T05:21:08.753Z,91.05
2018-11-07T05:22:13.277Z,89.65
2018-11-07T05:23:17.800Z,87.05
2018-11-07T05:24:22.305Z,83.35
2018-11-07T05:25:26.865Z,77.70
2018-11-07T05:26:31.723Z,88.05
2018-11-07T05:27:36.260Z,85.72
2018-11-07T05:28:40.793Z,92.65
2018-11-07T05:29:45.384Z,84.52
2018-11-07T05:30:49.896Z,84.15
2018-11-07T05:31:54.546Z,79.62
2018-11-07T05:32:58.964Z,87.57
2018-11-07T05:34:03.423Z,82.82
2018-11-07T05:35:08.202Z,94.87
2018-11-07T05:36:12.680Z,82.62
2018-11-07T05:37:18.558Z,87.47
2018-11-07T05:38:23.441Z,87.12
2018-11-07T05:39:27.976Z,83.25
2018-11-07T05:40:32.541Z,85.32
2018-11-07T05:41:37.245Z,83.27
2018-11-07T05:42:42.604Z,88.07
2018-11-07T05:43:47.604Z,90.03
2018-11-07T05:44:52.075Z,100.72
2018-11-07T05:45:56.621Z,90.42
2018-11-07T05:47:01.257Z,91.22
2018-11-07T05:48:05.803Z,83.78
2018-11-07T05:49:10.415Z,92.17
2018-11-07T05:50:14.949Z,88.92
2018-11-07T05:51:19.658Z,87.53
2018-11-07T05:52:24.729Z,95.45
2018-11-07T05:53:31.058Z,87.85
2018-11-07T05:54:37.184Z,90.12
2018-11-07T05:55:41.704Z,90.17
2018-11-07T05:56:48.979Z,93.00
2018-11-07T05:57:56.681Z,84.60
2018-11-07T05:59:01.886Z,88.65
2018-11-07T06:00:08.096Z,90.07
2018-11-07T06:01:14.779Z,84.32
2018-11-07T06:02:19.253Z,94.10
2018-11-07T06:03:23.696Z,87.67
2018-11-07T06:04:28.248Z,86.12
2018-11-07T06:05:32.864Z,87.62
2018-11-07T06:06:37.434Z,86.63
2018-11-07T06:07:42.063Z,77.20
2018-11-07T06:08:46.583Z,86.60
2018-11-07T06:09:51.127Z,90.20
2018-11-07T06:10:55.678Z,89.00
2018-11-07T06:12:00.199Z,83.30
2018-11-07T06:13:04.785Z,84.30
2018-11-07T06:14:09.401Z,91.05
2018-11-07T06:15:14.078Z,94.80
2018-11-07T06:16:18.777Z,83.97
2018-11-07T06:17:23.149Z,84.15
2018-11-07T06:18:27.963Z,78.67
2018-11-07T06:19:32.406Z,82.78
2018-11-07T06:20:37.994Z,95.75
2018-11-07T06:21:44.093Z,85.35
2018-11-07T06:22:48.709Z,78.10
2018-11-07T06:23:53.190Z,94.42
2018-11-07T06:24:58.147Z,81.72
2018-11-07T06:26:02.637Z,83.45
2018-11-07T06:27:07.173Z,82.95
2018-11-07T06:28:11.670Z,85.77
2018-11-07T06:29:16.196Z,78.97
2018-11-07T06:30:20.754Z,81.60
2018-11-07T06:31:25.241Z,87.80
2018-11-07T06:32:29.717Z,90.10
2018-11-07T06:33:34.250Z,83.82
2018-11-07T06:34:38.713Z,83.72
2018-11-07T06:35:43.188Z,85.65
2018-11-07T06:36:47.654Z,85.05
2018-11-07T06:37:52.130Z,80.75
2018-11-07T06:38:56.694Z,82.67
2018-11-07T06:40:01.268Z,77.50
2018-11-07T06:41:05.847Z,89.37
2018-11-07T06:42:10.380Z,87.00
2018-11-07T06:43:14.906Z,93.27
2018-11-07T06:44:19.513Z,82.90
2018-11-07T06:45:23.987Z,88.22
2018-11-07T06:46:28.519Z,83.07
2018-11-07T06:47:33.304Z,85.62
2018-11-07T06:48:38.084Z,79.82
2018-11-07T06:49:43.089Z,83.45
2018-11-07T06:50:47.657Z,83.82
2018-11-07T06:51:52.141Z,76.75
2018-11-07T06:52:56.715Z,75.62
2018-11-07T06:54:01.767Z,71.10
2018-11-07T06:55:07.460Z,79.53
2018-11-07T06:56:12.021Z,74.15
2018-11-07T06:57:16.561Z,78.92
2018-11-07T06:58:21.106Z,75.20
2018-11-07T06:59:25.689Z,73.92
2018-11-07T07:00:33.809Z,74.80
2018-11-07T07:01:38.289Z,79.07
2018-11-07T07:02:43.556Z,80.65
2018-11-07T07:03:48.123Z,82.65
2018-11-07T07:04:52.700Z,72.87
2018-11-07T07:05:57.277Z,74.80
2018-11-07T07:07:01.829Z,82.02
2018-11-07T07:08:06.453Z,79.12
2018-11-07T07:09:11.454Z,75.15
2018-11-07T07:10:17.503Z,80.50
2018-11-07T07:11:22.257Z,81.55
2018-11-07T07:12:26.787Z,69.87
2018-11-07T07:13:31.332Z,76.10
2018-11-07T07:14:35.891Z,81.30
2018-11-07T07:15:40.461Z,77.67
2018-11-07T07:16:45.005Z,74.80
2018-11-07T07:17:49.563Z,64.87
2018-11-07T07:18:54.565Z,75.55
2018-11-07T07:19:59.099Z,68.70
2018-11-07T07:21:03.674Z,63.58
2018-11-07T07:22:08.703Z,73.57
2018-11-07T07:23:13.317Z,71.42
2018-11-07T07:24:18.564Z,75.85
2018-11-07T07:25:23.148Z,81.53
2018-11-07T07:26:27.667Z,87.17
2018-11-07T07:27:32.224Z,81.00
2018-11-07T07:28:36.782Z,80.45
2018-11-07T07:29:41.341Z,70.67
2018-11-07T07:30:45.870Z,69.50
2018-11-07T07:31:50.407Z,66.82
2018-11-07T07:32:54.990Z,72.55
2018-11-07T07:33:59.563Z,70.95
2018-11-07T07:35:04.502Z,66.30
2018-11-07T07:36:09.067Z,67.42
2018-11-07T07:37:13.597Z,73.55
2018-11-07T07:38:18.080Z,76.92
2018-11-07T07:39:22.733Z,72.50
2018-11-07T07:40:27.313Z,67.75
2018-11-07T07:41:31.858Z,62.90
2018-11-07T07:42:36.414Z,67.55
2018-11-07T07:43:40.866Z,66.60
2018-11-07T07:44:45.415Z,66.02
2018-11-07T07:45:50.015Z,75.70
2018-11-07T07:46:54.526Z,72.62
2018-11-07T07:47:59.027Z,73.70
2018-11-07T07:49:03.550Z,72.95
2018-11-07T07:50:09.518Z,72.50
2018-11-07T07:51:14.070Z,76.22
2018-11-07T07:52:18.541Z,66.20
2018-11-07T07:53:23.100Z,67.50
2018-11-07T07:54:27.615Z,59.88
2018-11-07T07:55:32.085Z,62.83
2018-11-07T07:56:36.565Z,63.13
2018-11-07T07:57:41.581Z,67.72
2018-11-07T07:58:46.108Z,59.98
2018-11-07T07:59:50.595Z,67.85
2018-11-07T08:00:55.193Z,63.70
2018-11-07T08:01:59.683Z,63.95
2018-11-07T08:03:04.281Z,68.10
2018-11-07T08:04:08.750Z,66.15
2018-11-07T08:05:13.297Z,69.82
2018-11-07T08:06:18.081Z,64.32
2018-11-07T08:07:22.625Z,58.83
2018-11-07T08:08:27.190Z,69.87
2018-11-07T08:09:32.164Z,62.85
2018-11-07T08:10:36.676Z,68.80
2018-11-07T08:11:41.348Z,67.70
2018-11-07T08:12:46.413Z,61.77
2018-11-07T08:13:50.985Z,73.00
2018-11-07T08:14:55.501Z,65.30
2018-11-07T08:16:00.149Z,63.65
2018-11-07T08:17:04.711Z,66.00
2018-11-07T08:18:09.241Z,70.28
2018-11-07T08:19:13.773Z,65.85
2018-11-07T08:20:18.829Z,71.20
2018-11-07T08:21:23.386Z,67.40
2018-11-07T08:22:27.868Z,66.15
2018-11-07T08:23:32.411Z,60.00
2018-11-07T08:24:37.030Z,63.52
2018-11-07T08:25:41.508Z,61.50
2018-11-07T08:26:45.970Z,64.05
2018-11-07T08:27:50.452Z,67.35
2018-11-07T08:28:54.926Z,59.90
2018-11-07T08:29:59.448Z,68.50
2018-11-07T08:31:04.617Z,64.58
2018-11-07T08:32:09.113Z,62.10
2018-11-07T08:33:13.649Z,67.90
2018-11-07T08:34:18.154Z,61.63
2018-11-07T08:35:22.691Z,66.50
2018-11-07T08:36:27.231Z,59.67
2018-11-07T08:37:31.782Z,60.78
2018-11-07T08:38:36.326Z,64.37
2018-11-07T08:39:40.860Z,62.55
2018-11-07T08:40:45.400Z,60.70
2018-11-07T08:41:49.956Z,63.42
2018-11-07T08:42:54.488Z,61.73
2018-11-07T08:43:59.056Z,58.15
2018-11-07T08:45:03.641Z,54.83
2018-11-07T08:46:08.163Z,60.63
2018-11-07T08:47:12.758Z,65.78
2018-11-07T08:48:17.377Z,62.03
2018-11-07T08:49:21.860Z,65.20
2018-11-07T08:50:26.308Z,55.43
2018-11-07T08:51:30.806Z,68.30
2018-11-07T08:52:35.294Z,61.28
2018-11-07T08:53:39.814Z,53.20
2018-11-07T08:54:44.282Z,57.23
2018-11-07T08:55:48.870Z,60.12
2018-11-07T08:56:53.347Z,58.28
2018-11-07T08:57:57.820Z,58.90
2018-11-07T08:59:02.286Z,58.45
2018-11-07T09:00:09.756Z,59.55
2018-11-07T09:01:14.322Z,57.48
2018-11-07T09:02:18.797Z,53.83
2018-11-07T09:03:23.350Z,56.88
2018-11-07T09:04:27.898Z,63.73
2018-11-07T09:05:32.469Z,57.60
2018-11-07T09:06:37.350Z,58.63
2018-11-07T09:07:42.436Z,47.83
2018-11-07T09:08:46.989Z,53.87
2018-11-07T09:09:51.531Z,51.50
2018-11-07T09:10:56.074Z,55.60
2018-11-07T09:12:00.662Z,55.60
2018-11-07T09:13:05.240Z,54.75
2018-11-07T09:14:10.023Z,57.03
2018-11-07T09:15:15.775Z,52.10
2018-11-07T09:16:20.232Z,56.33
2018-11-07T09:17:24.842Z,51.48
2018-11-07T09:18:29.304Z,57.35
2018-11-07T09:19:33.826Z,54.58
2018-11-07T09:20:38.288Z,57.55
2018-11-07T09:21:42.776Z,57.58
2018-11-07T09:22:47.249Z,53.42
2018-11-07T09:23:51.792Z,59.88
2018-11-07T09:24:56.308Z,54.48
2018-11-07T09:26:00.818Z,63.42
2018-11-07T09:27:05.646Z,58.08
2018-11-07T09:28:10.116Z,54.18
2018-11-07T09:29:14.676Z,52.98
2018-11-07T09:30:22.517Z,49.25
2018-11-07T09:31:27.097Z,53.85
2018-11-07T09:32:31.665Z,57.38
2018-11-07T09:33:36.121Z,51.58
2018-11-07T09:34:40.585Z,49.85
2018-11-07T09:35:45.047Z,53.58
2018-11-07T09:36:49.519Z,61.85
2018-11-07T09:37:54.061Z,52.67
2018-11-07T09:38:58.648Z,56.37
2018-11-07T09:40:03.484Z,52.30
2018-11-07T09:41:08.059Z,50.90
2018-11-07T09:42:12.749Z,55.92
2018-11-07T09:43:17.327Z,56.45
2018-11-07T09:44:21.883Z,55.05
2018-11-07T09:45:26.501Z,48.28
2018-11-07T09:46:31.027Z,50.03
2018-11-07T09:47:35.612Z,53.00
2018-11-07T09:48:40.213Z,51.90
2018-11-07T09:49:44.754Z,50.48
2018-11-07T09:50:49.275Z,60.12
2018-11-07T09:51:53.796Z,45.60
2018-11-07T09:52:58.355Z,52.03
2018-11-07T09:54:03.697Z,49.23
2018-11-07T09:55:10.143Z,52.98
2018-11-07T09:56:14.722Z,45.95
2018-11-07T09:57:19.252Z,55.25
2018-11-07T09:58:23.908Z,49.65
2018-11-07T09:59:28.744Z,54.18
2018-11-07T10:00:33.278Z,59.63
2018-11-07T10:01:37.814Z,51.02
2018-11-07T10:02:42.423Z,53.00
2018-11-07T10:03:46.900Z,50.92
2018-11-07T10:04:51.536Z,52.00
2018-11-07T10:05:56.143Z,55.30
2018-11-07T10:07:00.611Z,52.88
2018-11-07T10:08:05.675Z,52.38
2018-11-07T10:09:11.232Z,50.70
2018-11-07T10:10:17.190Z,56.55
2018-11-07T10:11:21.804Z,53.45
2018-11-07T10:12:26.347Z,58.68
2018-11-07T10:13:30.933Z,61.33
2018-11-07T10:14:35.477Z,52.43
2018-11-07T10:15:39.983Z,52.13
2018-11-07T10:16:44.518Z,51.15
2018-11-07T10:17:49.137Z,51.75
2018-11-07T10:18:53.674Z,54.23
2018-11-07T10:19:58.349Z,50.73
2018-11-07T10:21:02.895Z,54.45
2018-11-07T10:22:07.426Z,56.65
2018-11-07T10:23:11.963Z,53.55
2018-11-07T10:24:16.437Z,54.45
2018-11-07T10:25:21.297Z,51.42
2018-11-07T10:26:25.862Z,51.28
2018-11-07T10:27:30.641Z,47.67
2018-11-07T10:28:35.079Z,56.23
2018-11-07T10:29:39.640Z,55.60
2018-11-07T10:30:44.048Z,48.52
2018-11-07T10:31:48.509Z,52.17
2018-11-07T10:32:53.074Z,54.48
2018-11-07T10:33:57.588Z,55.12
2018-11-07T10:35:02.072Z,51.98
2018-11-07T10:36:06.665Z,54.33
2018-11-07T10:37:11.140Z,48.60
2018-11-07T10:38:15.654Z,50.78
2018-11-07T10:39:20.183Z,53.40
2018-11-07T10:40:25.480Z,53.30
2018-11-07T10:41:29.994Z,45.75
2018-11-07T10:42:34.560Z,48.50
2018-11-07T10:43:39.151Z,48.90
2018-11-07T10:44:43.681Z,51.10
2018-11-07T10:45:48.196Z,50.38
2018-11-07T10:46:52.750Z,49.08
2018-11-07T10:47:57.298Z,53.35
2018-11-07T10:49:01.865Z,47.65
2018-11-07T10:50:08.094Z,53.33
2018-11-07T10:51:12.608Z,48.15
2018-11-07T10:52:17.112Z,56.73
2018-11-07T10:53:21.741Z,51.85
2018-11-07T10:54:26.272Z,51.68
2018-11-07T10:55:30.965Z,51.08
2018-11-07T10:56:35.494Z,49.90
2018-11-07T10:57:39.977Z,46.83
2018-11-07T10:58:44.512Z,48.38
2018-11-07T10:59:49.087Z,47.15
2018-11-07T11:00:58.812Z,50.45
2018-11-07T11:02:05.114Z,50.55
2018-11-07T11:03:14.631Z,49.23
2018-11-07T11:04:19.178Z,48.02
2018-11-07T11:05:23.677Z,53.33
2018-11-07T11:06:28.177Z,50.80
2018-11-07T11:07:32.653Z,51.10
2018-11-07T11:08:37.381Z,54.93
2018-11-07T11:09:41.921Z,49.85
2018-11-07T11:10:46.494Z,47.60
2018-11-07T11:11:51.072Z,52.67
2018-11-07T11:12:55.599Z,58.33
2018-11-07T11:14:00.242Z,52.23
2018-11-07T11:15:04.813Z,49.95
2018-11-07T11:16:09.345Z,51.28
2018-11-07T11:17:13.880Z,53.78
2018-11-07T11:18:18.442Z,50.67
2018-11-07T11:19:22.968Z,48.35
2018-11-07T11:20:27.495Z,45.73
2018-11-07T11:21:32.089Z,47.30
2018-11-07T11:22:36.762Z,47.05
2018-11-07T11:23:41.297Z,45.38
2018-11-07T11:24:45.825Z,47.62
2018-11-07T11:25:50.407Z,47.35
2018-11-07T11:26:55.216Z,50.95
2018-11-07T11:27:59.770Z,52.13
2018-11-07T11:29:04.349Z,48.70
2018-11-07T11:30:09.629Z,56.40
2018-11-07T11:31:14.158Z,50.60
2018-11-07T11:32:18.682Z,45.00
2018-11-07T11:33:23.219Z,55.45
2018-11-07T11:34:27.777Z,48.58
2018-11-07T11:35:32.248Z,49.38
2018-11-07T11:36:36.787Z,47.00
2018-11-07T11:37:41.295Z,49.45
2018-11-07T11:38:45.771Z,54.83
2018-11-07T11:39:50.400Z,47.13
2018-11-07T11:40:55.113Z,46.02
2018-11-07T11:41:59.674Z,47.55
2018-11-07T11:43:04.157Z,56.25
2018-11-07T11:44:09.203Z,54.05
2018-11-07T11:45:14.994Z,45.48
2018-11-07T11:46:19.544Z,47.48
2018-11-07T11:47:24.077Z,45.25
2018-11-07T11:48:28.606Z,46.88
2018-11-07T11:49:33.142Z,47.38
2018-11-07T11:50:37.710Z,41.92
2018-11-07T11:51:42.232Z,39.98
2018-11-07T11:52:47.625Z,46.80
2018-11-07T11:53:52.225Z,49.35
2018-11-07T11:54:56.760Z,43.48
2018-11-07T11:56:01.311Z,40.70
2018-11-07T11:57:06.012Z,40.38
2018-11-07T11:58:10.676Z,43.25
2018-11-07T11:59:15.332Z,41.48
2018-11-07T12:00:20.645Z,42.95
2018-11-07T12:01:25.654Z,40.45
2018-11-07T12:02:30.203Z,40.35
2018-11-07T12:03:34.657Z,43.80
2018-11-07T12:04:39.196Z,43.58
2018-11-07T12:05:43.746Z,41.05
2018-11-07T12:06:48.282Z,43.80
2018-11-07T12:07:52.752Z,39.38
2018-11-07T12:08:57.471Z,41.98
2018-11-07T12:10:02.001Z,47.50
2018-11-07T12:11:06.565Z,42.73
2018-11-07T12:12:11.106Z,41.68
2018-11-07T12:13:15.715Z,48.90
2018-11-07T12:14:20.242Z,38.73
2018-11-07T12:15:26.302Z,43.63
2018-11-07T12:16:30.757Z,45.30
2018-11-07T12:17:35.326Z,38.30
2018-11-07T12:18:39.855Z,45.03
2018-11-07T12:19:44.379Z,43.60
2018-11-07T12:20:48.910Z,42.50
2018-11-07T12:21:53.441Z,43.52
2018-11-07T12:22:58.023Z,41.25
2018-11-07T12:24:02.488Z,38.50
2018-11-07T12:25:08.417Z,43.28
2018-11-07T12:26:13.188Z,36.68
2018-11-07T12:27:17.634Z,40.58
2018-11-07T12:28:22.179Z,40.88
2018-11-07T12:29:26.736Z,41.90
2018-11-07T12:30:31.194Z,45.17
2018-11-07T12:31:35.665Z,44.00
2018-11-07T12:32:40.213Z,41.53
2018-11-07T12:33:44.667Z,38.60
2018-11-07T12:34:49.182Z,42.55
2018-11-07T12:35:53.733Z,43.42
2018-11-07T12:36:58.321Z,40.28
2018-11-07T12:38:02.843Z,44.20
2018-11-07T12:39:08.832Z,46.30
2018-11-07T12:40:13.847Z,42.58
2018-11-07T12:41:18.369Z,39.40
2018-11-07T12:42:23.050Z,45.05
2018-11-07T12:43:27.599Z,44.13
2018-11-07T12:44:43.367Z,43.30
2018-11-07T12:45:47.898Z,38.85
2018-11-07T12:46:52.356Z,44.50
2018-11-07T12:47:56.854Z,42.27
2018-11-07T12:49:01.397Z,43.13
2018-11-07T12:50:07.855Z,39.75
2018-11-07T12:51:12.167Z,39.23
2018-11-07T12:52:16.631Z,39.15
2018-11-07T12:53:21.380Z,40.28
2018-11-07T12:54:25.871Z,41.83
2018-11-07T12:55:30.371Z,42.23
2018-11-07T12:56:34.828Z,42.70
2018-11-07T12:57:39.438Z,42.05
2018-11-07T12:58:43.930Z,40.10
2018-11-07T12:59:48.394Z,39.90
2018-11-07T13:00:52.894Z,40.52
2018-11-07T13:01:57.360Z,42.67
2018-11-07T13:03:01.871Z,39.75
2018-11-07T13:04:06.646Z,39.98
2018-11-07T13:05:12.753Z,40.45
2018-11-07T13:06:17.301Z,40.80
2018-11-07T13:07:21.788Z,41.20
2018-11-07T13:08:26.425Z,40.78
2018-11-07T13:09:30.920Z,36.63
2018-11-07T13:10:35.395Z,40.80
2018-11-07T13:11:40.769Z,40.25
2018-11-07T13:12:45.764Z,41.25
2018-11-07T13:13:50.316Z,45.43
2018-11-07T13:14:54.832Z,42.23
2018-11-07T13:15:59.424Z,41.40
2018-11-07T13:17:03.966Z,42.88
2018-11-07T13:18:08.521Z,39.78
2018-11-07T13:19:13.490Z,46.28
2018-11-07T13:20:19.674Z,40.58
2018-11-07T13:21:24.267Z,43.73
2018-11-07T13:22:28.906Z,41.15
2018-11-07T13:23:33.740Z,42.10
2018-11-07T13:24:38.293Z,50.60
2018-11-07T13:25:42.851Z,46.37
2018-11-07T13:26:47.318Z,44.20
2018-11-07T13:27:51.870Z,44.15
2018-11-07T13:28:56.403Z,41.02
2018-11-07T13:30:00.880Z,42.62
2018-11-07T13:31:05.505Z,39.35
2018-11-07T13:32:09.978Z,36.23
2018-11-07T13:33:14.463Z,38.10
2018-11-07T13:34:18.952Z,35.88
2018-11-07T13:35:23.456Z,38.35
2018-11-07T13:36:27.968Z,37.33
2018-11-07T13:37:32.832Z,38.02
2018-11-07T13:38:37.344Z,42.40
2018-11-07T13:39:41.522Z,37.55
2018-11-07T13:40:45.976Z,37.98
2018-11-07T13:41:50.481Z,47.40
2018-11-07T13:42:54.938Z,45.38
2018-11-07T13:43:59.401Z,38.50
2018-11-07T13:45:04.015Z,37.25
2018-11-07T13:46:08.701Z,46.48